sensor_id;sensor_type;location;lat;lon;timestamp;pressure;altitude;pressure_sealevel;temperature;humidity
76122;BME280;70471;53.200;6.080;2023-08-30T00:01:42;100820.72;;;20.92;51.82
76122;BME280;70471;53.200;6.080;2023-08-30T00:06:34;100806.31;;;20.90;51.29
76122;BME280;70471;53.200;6.080;2023-08-30T00:11:25;100808.28;;;20.90;51.35
76122;BME280;70471;53.200;6.080;2023-08-30T00:16:17;100801.72;;;20.86;51.05
76122;BME280;70471;53.200;6.080;2023-08-30T00:21:10;100801.50;;;20.82;51.65
76122;BME280;70471;53.200;6.080;2023-08-30T00:26:01;100800.69;;;20.82;51.21
76122;BME280;70471;53.200;6.080;2023-08-30T00:30:53;100782.75;;;20.79;51.80
76122;BME280;70471;53.200;6.080;2023-08-30T00:35:45;100786.63;;;20.78;51.42
76122;BME280;70471;53.200;6.080;2023-08-30T00:40:41;100782.25;;;20.77;51.72
76122;BME280;70471;53.200;6.080;2023-08-30T00:45:32;100780.91;;;20.74;51.87
76122;BME280;70471;53.200;6.080;2023-08-30T00:50:24;100780.09;;;20.74;51.38
76122;BME280;70471;53.200;6.080;2023-08-30T00:55:16;100782.84;;;20.74;51.68
76122;BME280;70471;53.200;6.080;2023-08-30T01:00:10;100780.09;;;20.74;51.73
76122;BME280;70471;53.200;6.080;2023-08-30T01:05:02;100772.91;;;20.73;51.30
76122;BME280;70471;53.200;6.080;2023-08-30T01:09:54;100768.81;;;20.70;51.55
76122;BME280;70471;53.200;6.080;2023-08-30T01:14:50;100765.75;;;20.72;51.56
76122;BME280;70471;53.200;6.080;2023-08-30T01:19:51;100766.03;;;20.70;51.24
76122;BME280;70471;53.200;6.080;2023-08-30T01:24:55;100760.59;;;20.65;51.11
76122;BME280;70471;53.200;6.080;2023-08-30T01:29:51;100772.81;;;20.64;51.39
76122;BME280;70471;53.200;6.080;2023-08-30T01:34:45;100763.78;;;20.59;51.12
76122;BME280;70471;53.200;6.080;2023-08-30T01:39:38;100768.00;;;20.56;50.86
76122;BME280;70471;53.200;6.080;2023-08-30T01:44:31;100748.69;;;20.51;50.74
76122;BME280;70471;53.200;6.080;2023-08-30T01:49:25;100736.38;;;20.43;50.98
76122;BME280;70471;53.200;6.080;2023-08-30T01:54:18;100743.69;;;20.53;51.36
76122;BME280;70471;53.200;6.080;2023-08-30T01:59:10;100751.16;;;20.52;51.17
76122;BME280;70471;53.200;6.080;2023-08-30T02:04:01;100747.28;;;20.53;51.07
76122;BME280;70471;53.200;6.080;2023-08-30T02:08:55;100732.94;;;20.51;51.36
76122;BME280;70471;53.200;6.080;2023-08-30T02:13:48;100729.31;;;20.51;51.04
76122;BME280;70471;53.200;6.080;2023-08-30T02:18:41;100723.28;;;20.49;51.50
76122;BME280;70471;53.200;6.080;2023-08-30T02:23:33;100717.75;;;20.49;51.30
76122;BME280;70471;53.200;6.080;2023-08-30T02:28:26;100711.41;;;20.48;51.01
76122;BME280;70471;53.200;6.080;2023-08-30T02:33:17;100702.56;;;20.46;51.37
76122;BME280;70471;53.200;6.080;2023-08-30T02:38:09;100704.81;;;20.44;51.01
76122;BME280;70471;53.200;6.080;2023-08-30T02:43:00;100703.72;;;20.45;50.48
76122;BME280;70471;53.200;6.080;2023-08-30T02:47:56;100705.94;;;20.43;50.97
76122;BME280;70471;53.200;6.080;2023-08-30T02:52:47;100701.56;;;20.42;50.84
76122;BME280;70471;53.200;6.080;2023-08-30T02:57:39;100698.78;;;20.42;50.63
76122;BME280;70471;53.200;6.080;2023-08-30T03:02:30;100698.25;;;20.40;50.18
76122;BME280;70471;53.200;6.080;2023-08-30T03:07:23;100691.09;;;20.39;50.55
76122;BME280;70471;53.200;6.080;2023-08-30T03:12:14;100682.28;;;20.37;50.49
76122;BME280;70471;53.200;6.080;2023-08-30T03:17:06;100676.75;;;20.37;50.30
76122;BME280;70471;53.200;6.080;2023-08-30T03:21:57;100675.69;;;20.33;49.61
76122;BME280;70471;53.200;6.080;2023-08-30T03:26:51;100676.31;;;20.30;50.38
76122;BME280;70471;53.200;6.080;2023-08-30T03:31:43;100669.97;;;20.29;50.04
76122;BME280;70471;53.200;6.080;2023-08-30T03:36:34;100673.03;;;20.28;49.76
76122;BME280;70471;53.200;6.080;2023-08-30T03:41:25;100662.28;;;20.26;50.03
76122;BME280;70471;53.200;6.080;2023-08-30T03:46:18;100658.97;;;20.24;49.84
76122;BME280;70471;53.200;6.080;2023-08-30T03:51:09;100647.72;;;20.20;49.73
76122;BME280;70471;53.200;6.080;2023-08-30T03:56:01;100640.56;;;20.19;50.03
76122;BME280;70471;53.200;6.080;2023-08-30T04:00:53;100638.91;;;20.18;49.77
76122;BME280;70471;53.200;6.080;2023-08-30T04:05:46;100631.22;;;20.15;49.80
76122;BME280;70471;53.200;6.080;2023-08-30T04:10:38;100638.50;;;20.11;49.78
76122;BME280;70471;53.200;6.080;2023-08-30T04:15:32;100623.66;;;20.07;49.43
76122;BME280;70471;53.200;6.080;2023-08-30T04:20:24;100611.75;;;20.07;49.98
76122;BME280;70471;53.200;6.080;2023-08-30T04:25:17;100603.13;;;20.08;50.45
76122;BME280;70471;53.200;6.080;2023-08-30T04:30:10;100587.69;;;20.07;50.41
76122;BME280;70471;53.200;6.080;2023-08-30T04:35:02;100588.00;;;20.06;50.56
76122;BME280;70471;53.200;6.080;2023-08-30T04:39:54;100585.53;;;20.04;50.15
76122;BME280;70471;53.200;6.080;2023-08-30T04:44:47;100582.47;;;20.06;50.51
76122;BME280;70471;53.200;6.080;2023-08-30T04:49:38;100581.63;;;20.05;50.15
76122;BME280;70471;53.200;6.080;2023-08-30T04:54:29;100578.66;;;20.01;50.08
76122;BME280;70471;53.200;6.080;2023-08-30T04:59:21;100565.66;;;20.02;50.40
76122;BME280;70471;53.200;6.080;2023-08-30T05:04:14;100571.19;;;20.02;50.02
76122;BME280;70471;53.200;6.080;2023-08-30T05:09:05;100569.56;;;20.01;50.35
76122;BME280;70471;53.200;6.080;2023-08-30T05:13:57;100566.59;;;19.97;49.86
76122;BME280;70471;53.200;6.080;2023-08-30T05:18:48;100575.19;;;19.96;50.11
76122;BME280;70471;53.200;6.080;2023-08-30T05:23:41;100571.91;;;19.94;49.96
76122;BME280;70471;53.200;6.080;2023-08-30T05:28:33;100567.00;;;19.91;49.76
76122;BME280;70471;53.200;6.080;2023-08-30T05:33:24;100556.53;;;19.88;49.73
76122;BME280;70471;53.200;6.080;2023-08-30T05:38:16;100551.94;;;19.83;50.07
76122;BME280;70471;53.200;6.080;2023-08-30T05:43:08;100544.28;;;19.80;49.78
76122;BME280;70471;53.200;6.080;2023-08-30T05:48:00;100537.91;;;19.79;50.39
76122;BME280;70471;53.200;6.080;2023-08-30T05:52:51;100525.75;;;19.80;50.41
76122;BME280;70471;53.200;6.080;2023-08-30T05:57:44;100529.00;;;19.82;50.06
76122;BME280;70471;53.200;6.080;2023-08-30T06:02:37;100530.66;;;19.83;50.53
76122;BME280;70471;53.200;6.080;2023-08-30T06:07:28;100538.53;;;19.90;50.96
76122;BME280;70471;53.200;6.080;2023-08-30T06:12:20;100537.72;;;19.90;50.99
76122;BME280;70471;53.200;6.080;2023-08-30T06:17:11;100526.66;;;19.90;50.74
76122;BME280;70471;53.200;6.080;2023-08-30T06:22:04;100520.28;;;19.89;50.96
76122;BME280;70471;53.200;6.080;2023-08-30T06:26:55;100523.06;;;19.89;50.76
76122;BME280;70471;53.200;6.080;2023-08-30T06:31:46;100523.91;;;19.90;50.45
76122;BME280;70471;53.200;6.080;2023-08-30T06:36:38;100517.75;;;19.93;50.87
76122;BME280;70471;53.200;6.080;2023-08-30T06:41:31;100518.75;;;19.97;50.31
76122;BME280;70471;53.200;6.080;2023-08-30T06:46:22;100519.78;;;20.01;50.89
76122;BME280;70471;53.200;6.080;2023-08-30T06:51:14;100528.59;;;20.03;50.67
76122;BME280;70471;53.200;6.080;2023-08-30T06:56:05;100502.56;;;20.04;50.60
76122;BME280;70471;53.200;6.080;2023-08-30T07:00:58;100509.63;;;20.10;50.29
76122;BME280;70471;53.200;6.080;2023-08-30T07:05:50;100494.34;;;20.13;50.66
76122;BME280;70471;53.200;6.080;2023-08-30T07:10:42;100506.13;;;20.18;50.56
76122;BME280;70471;53.200;6.080;2023-08-30T07:15:34;100505.00;;;20.19;50.77
76122;BME280;70471;53.200;6.080;2023-08-30T07:20:26;100506.00;;;20.24;50.58
76122;BME280;70471;53.200;6.080;2023-08-30T07:25:18;100503.25;;;20.24;50.31
76122;BME280;70471;53.200;6.080;2023-08-30T07:30:09;100510.13;;;20.26;50.67
76122;BME280;70471;53.200;6.080;2023-08-30T07:35:01;100503.75;;;20.26;50.81
76122;BME280;70471;53.200;6.080;2023-08-30T07:39:54;100498.22;;;20.26;50.19
76122;BME280;70471;53.200;6.080;2023-08-30T07:44:46;100499.03;;;20.26;50.82
76122;BME280;70471;53.200;6.080;2023-08-30T07:49:37;100513.19;;;20.25;50.35
76122;BME280;70471;53.200;6.080;2023-08-30T07:54:29;100509.81;;;20.28;50.32
76122;BME280;70471;53.200;6.080;2023-08-30T07:59:22;100508.66;;;20.29;50.19
76122;BME280;70471;53.200;6.080;2023-08-30T08:04:13;100522.50;;;20.29;50.54
76122;BME280;70471;53.200;6.080;2023-08-30T08:09:05;100518.91;;;20.28;50.19
76122;BME280;70471;53.200;6.080;2023-08-30T08:13:57;100523.81;;;20.31;50.67
76122;BME280;70471;53.200;6.080;2023-08-30T08:18:50;100526.81;;;20.35;50.48
76122;BME280;70471;53.200;6.080;2023-08-30T08:23:42;100540.03;;;20.38;50.16
76122;BME280;70471;53.200;6.080;2023-08-30T08:28:33;100524.88;;;20.35;49.92
76122;BME280;70471;53.200;6.080;2023-08-30T08:33:25;100534.59;;;20.33;50.52
76122;BME280;70471;53.200;6.080;2023-08-30T08:38:17;100537.34;;;20.33;50.42
76122;BME280;70471;53.200;6.080;2023-08-30T08:43:10;100542.88;;;20.33;50.43
76122;BME280;70471;53.200;6.080;2023-08-30T08:48:03;100539.03;;;20.34;49.82
76122;BME280;70471;53.200;6.080;2023-08-30T08:52:56;100528.56;;;20.31;49.89
76122;BME280;70471;53.200;6.080;2023-08-30T08:57:49;100536.13;;;20.39;49.78
76122;BME280;70471;53.200;6.080;2023-08-30T09:02:41;100535.53;;;20.42;49.87
76122;BME280;70471;53.200;6.080;2023-08-30T09:07:33;100533.25;;;20.44;50.14
76122;BME280;70471;53.200;6.080;2023-08-30T09:12:25;100533.56;;;20.43;50.07
76122;BME280;70471;53.200;6.080;2023-08-30T09:17:17;100536.63;;;20.41;50.22
76122;BME280;70471;53.200;6.080;2023-08-30T09:22:09;100528.34;;;20.41;49.80
76122;BME280;70471;53.200;6.080;2023-08-30T09:27:00;100532.22;;;20.40;50.82
76122;BME280;70471;53.200;6.080;2023-08-30T09:31:52;100537.44;;;20.42;50.41
76122;BME280;70471;53.200;6.080;2023-08-30T09:36:46;100526.78;;;20.49;50.70
76122;BME280;70471;53.200;6.080;2023-08-30T09:42:06;100500.97;;;20.40;50.52
76122;BME280;70471;53.200;6.080;2023-08-30T09:47:29;100510.34;;;20.52;50.45
76122;BME280;70471;53.200;6.080;2023-08-30T09:52:24;100414.09;;;19.90;50.80
76122;BME280;70471;53.200;6.080;2023-08-30T09:57:16;100494.00;;;20.42;50.82
76122;BME280;70471;53.200;6.080;2023-08-30T10:02:10;100489.78;;;20.45;51.05
76122;BME280;70471;53.200;6.080;2023-08-30T10:07:02;100488.53;;;20.51;51.13
76122;BME280;70471;53.200;6.080;2023-08-30T10:11:57;100482.56;;;20.58;51.16
76122;BME280;70471;53.200;6.080;2023-08-30T10:16:51;100482.94;;;20.65;50.96
76122;BME280;70471;53.200;6.080;2023-08-30T10:21:44;100481.25;;;20.78;51.45
76122;BME280;70471;53.200;6.080;2023-08-30T10:26:37;100469.59;;;20.89;51.42
76122;BME280;70471;53.200;6.080;2023-08-30T10:31:34;100480.56;;;20.95;51.01
76122;BME280;70471;53.200;6.080;2023-08-30T10:36:27;100482.16;;;20.96;51.13
76122;BME280;70471;53.200;6.080;2023-08-30T10:41:23;100477.78;;;20.95;50.78
76122;BME280;70471;53.200;6.080;2023-08-30T10:46:15;100486.09;;;20.95;50.53
76122;BME280;70471;53.200;6.080;2023-08-30T10:51:20;100481.66;;;20.94;50.96
76122;BME280;70471;53.200;6.080;2023-08-30T10:56:12;100478.91;;;20.94;50.61
76122;BME280;70471;53.200;6.080;2023-08-30T11:01:04;100476.00;;;20.99;50.80
76122;BME280;70471;53.200;6.080;2023-08-30T11:05:58;100467.38;;;21.00;50.38
76122;BME280;70471;53.200;6.080;2023-08-30T11:11:02;100464.28;;;21.02;50.88
76122;BME280;70471;53.200;6.080;2023-08-30T11:15:59;100464.28;;;21.02;50.61
76122;BME280;70471;53.200;6.080;2023-08-30T11:20:54;100476.00;;;20.99;50.40
76122;BME280;70471;53.200;6.080;2023-08-30T11:25:50;100477.78;;;20.95;50.85
76122;BME280;70471;53.200;6.080;2023-08-30T11:30:43;100471.75;;;20.92;50.58
76122;BME280;70471;53.200;6.080;2023-08-30T11:35:34;100476.97;;;20.94;50.91
76122;BME280;70471;53.200;6.080;2023-08-30T11:40:27;100465.06;;;20.94;51.28
76122;BME280;70471;53.200;6.080;2023-08-30T11:45:18;100462.28;;;20.94;50.76
76122;BME280;70471;53.200;6.080;2023-08-30T11:50:12;100457.38;;;20.90;51.34
76122;BME280;70471;53.200;6.080;2023-08-30T11:55:04;100443.03;;;20.88;51.50
76122;BME280;70471;53.200;6.080;2023-08-30T12:00:07;100445.31;;;20.86;51.73
76122;BME280;70471;53.200;6.080;2023-08-30T12:04:58;100450.03;;;20.86;52.10
76122;BME280;70471;53.200;6.080;2023-08-30T12:09:51;100444.75;;;20.76;52.10
76122;BME280;70471;53.200;6.080;2023-08-30T12:14:43;100452.13;;;20.80;52.40
76122;BME280;70471;53.200;6.080;2023-08-30T12:19:35;100424.94;;;20.60;52.76
76122;BME280;70471;53.200;6.080;2023-08-30T12:24:26;100460.91;;;20.82;52.89
76122;BME280;70471;53.200;6.080;2023-08-30T12:29:19;100449.22;;;20.85;52.80
76122;BME280;70471;53.200;6.080;2023-08-30T12:34:10;100437.66;;;20.83;52.62
76122;BME280;70471;53.200;6.080;2023-08-30T12:39:01;100442.41;;;20.91;52.54
76122;BME280;70471;53.200;6.080;2023-08-30T12:43:54;100448.63;;;20.97;52.27
76122;BME280;70471;53.200;6.080;2023-08-30T12:48:47;100444.41;;;21.00;52.19
76122;BME280;70471;53.200;6.080;2023-08-30T12:53:38;100444.56;;;21.03;52.05
76122;BME280;70471;53.200;6.080;2023-08-30T12:58:30;100455.06;;;21.06;52.21
76122;BME280;70471;53.200;6.080;2023-08-30T13:03:21;100448.88;;;21.09;51.97
76122;BME280;70471;53.200;6.080;2023-08-30T13:08:14;100451.84;;;21.13;51.47
76122;BME280;70471;53.200;6.080;2023-08-30T13:13:05;100445.78;;;21.11;51.62
76122;BME280;70471;53.200;6.080;2023-08-30T13:17:57;100439.88;;;21.04;52.29
76122;BME280;70471;53.200;6.080;2023-08-30T13:22:48;100442.13;;;21.02;52.13
76122;BME280;70471;53.200;6.080;2023-08-30T13:27:41;100446.84;;;21.01;52.62
76122;BME280;70471;53.200;6.080;2023-08-30T13:32:33;100448.31;;;20.99;52.48
76122;BME280;70471;53.200;6.080;2023-08-30T13:37:25;100447.81;;;20.97;52.69
76122;BME280;70471;53.200;6.080;2023-08-30T13:42:17;100454.47;;;20.96;52.63
76122;BME280;70471;53.200;6.080;2023-08-30T13:47:09;100460.00;;;20.96;52.50
76122;BME280;70471;53.200;6.080;2023-08-30T13:52:01;100467.50;;;20.95;52.87
76122;BME280;70471;53.200;6.080;2023-08-30T13:56:53;100467.81;;;20.94;52.87
76122;BME280;70471;53.200;6.080;2023-08-30T14:01:44;100467.81;;;20.94;53.07
76122;BME280;70471;53.200;6.080;2023-08-30T14:06:37;100467.81;;;20.94;52.51
76122;BME280;70471;53.200;6.080;2023-08-30T14:11:28;100467.81;;;20.94;52.92
76122;BME280;70471;53.200;6.080;2023-08-30T14:16:20;100466.22;;;20.92;52.61
76122;BME280;70471;53.200;6.080;2023-08-30T14:21:11;100464.25;;;20.93;52.47
76122;BME280;70471;53.200;6.080;2023-08-30T14:26:06;100450.72;;;20.91;52.60
76122;BME280;70471;53.200;6.080;2023-08-30T14:31:01;100451.75;;;21.04;52.85
76122;BME280;70471;53.200;6.080;2023-08-30T14:35:54;100451.97;;;21.08;52.84
76122;BME280;70471;53.200;6.080;2023-08-30T14:40:54;100448.25;;;21.13;53.05
76122;BME280;70471;53.200;6.080;2023-08-30T14:45:47;100450.38;;;21.16;53.26
76122;BME280;70471;53.200;6.080;2023-08-30T14:50:38;100445.16;;;21.14;53.69
76122;BME280;70471;53.200;6.080;2023-08-30T14:55:30;100453.16;;;21.16;53.68
76122;BME280;70471;53.200;6.080;2023-08-30T15:00:21;100460.34;;;21.17;53.90
76122;BME280;70471;53.200;6.080;2023-08-30T15:05:14;100466.53;;;21.22;53.78
76122;BME280;70471;53.200;6.080;2023-08-30T15:10:06;100458.78;;;21.33;53.48
76122;BME280;70471;53.200;6.080;2023-08-30T15:14:58;100466.63;;;21.40;53.56
76122;BME280;70471;53.200;6.080;2023-08-30T15:19:49;100463.56;;;21.50;53.35
76122;BME280;70471;53.200;6.080;2023-08-30T15:24:42;100462.94;;;21.53;53.34
76122;BME280;70471;53.200;6.080;2023-08-30T15:29:34;100468.81;;;21.60;53.10
76122;BME280;70471;53.200;6.080;2023-08-30T15:34:25;100469.00;;;21.64;53.49
76122;BME280;70471;53.200;6.080;2023-08-30T15:39:17;100471.13;;;21.67;53.36
76122;BME280;70471;53.200;6.080;2023-08-30T15:44:10;100468.81;;;21.60;52.95
76122;BME280;70471;53.200;6.080;2023-08-30T15:49:01;100483.38;;;21.75;52.97
76122;BME280;70471;53.200;6.080;2023-08-30T15:53:53;100482.63;;;21.83;53.03
76122;BME280;70471;53.200;6.080;2023-08-30T15:58:46;100479.06;;;21.91;52.78
76122;BME280;70471;53.200;6.080;2023-08-30T16:03:38;100484.59;;;21.91;52.80
76122;BME280;70471;53.200;6.080;2023-08-30T16:08:30;100481.50;;;21.93;52.64
76122;BME280;70471;53.200;6.080;2023-08-30T16:13:22;100476.28;;;22.00;52.29
76122;BME280;70471;53.200;6.080;2023-08-30T16:18:13;100480.06;;;22.04;52.26
76122;BME280;70471;53.200;6.080;2023-08-30T16:23:07;100482.00;;;22.12;52.02
76122;BME280;70471;53.200;6.080;2023-08-30T16:27:59;100481.03;;;22.17;51.99
76122;BME280;70471;53.200;6.080;2023-08-30T16:32:51;100481.53;;;22.19;51.92
76122;BME280;70471;53.200;6.080;2023-08-30T16:37:42;100488.06;;;22.14;51.97
76122;BME280;70471;53.200;6.080;2023-08-30T16:42:35;100486.25;;;22.10;52.14
76122;BME280;70471;53.200;6.080;2023-08-30T16:47:27;100495.88;;;22.04;52.05
76122;BME280;70471;53.200;6.080;2023-08-30T16:52:18;100497.66;;;21.99;52.26
76122;BME280;70471;53.200;6.080;2023-08-30T16:57:10;100495.06;;;21.94;52.33
76122;BME280;70471;53.200;6.080;2023-08-30T17:02:03;100506.78;;;21.91;52.29
76122;BME280;70471;53.200;6.080;2023-08-30T17:06:55;100516.88;;;21.87;52.51
76122;BME280;70471;53.200;6.080;2023-08-30T17:11:49;100522.25;;;21.84;52.02
76122;BME280;70471;53.200;6.080;2023-08-30T17:16:41;100519.81;;;21.82;52.70
76122;BME280;70471;53.200;6.080;2023-08-30T17:21:33;100522.91;;;21.80;52.42
76122;BME280;70471;53.200;6.080;2023-08-30T17:26:25;100519.66;;;21.78;52.67
76122;BME280;70471;53.200;6.080;2023-08-30T17:31:16;100526.00;;;21.79;52.26
76122;BME280;70471;53.200;6.080;2023-08-30T17:36:13;100527.00;;;21.83;52.08
76122;BME280;70471;53.200;6.080;2023-08-30T17:41:09;100537.47;;;21.86;52.28
76122;BME280;70471;53.200;6.080;2023-08-30T17:46:01;100527.16;;;21.87;52.41
76122;BME280;70471;53.200;6.080;2023-08-30T17:50:53;100527.81;;;21.92;52.56
76122;BME280;70471;53.200;6.080;2023-08-30T17:55:53;100535.06;;;22.02;52.28
76122;BME280;70471;53.200;6.080;2023-08-30T18:00:45;100534.41;;;22.05;52.46
76122;BME280;70471;53.200;6.080;2023-08-30T18:05:37;100541.91;;;22.05;51.87
76122;BME280;70471;53.200;6.080;2023-08-30T18:10:29;100541.72;;;22.10;52.29
76122;BME280;70471;53.200;6.080;2023-08-30T18:15:21;100556.78;;;22.09;52.32
76122;BME280;70471;53.200;6.080;2023-08-30T18:20:14;100558.38;;;22.10;52.33
76122;BME280;70471;53.200;6.080;2023-08-30T18:25:06;100565.56;;;22.11;52.00
76122;BME280;70471;53.200;6.080;2023-08-30T18:29:58;100564.44;;;22.12;51.93
76122;BME280;70471;53.200;6.080;2023-08-30T18:34:49;100561.16;;;22.10;51.77
76122;BME280;70471;53.200;6.080;2023-08-30T18:39:42;100560.34;;;22.09;51.22
76122;BME280;70471;53.200;6.080;2023-08-30T18:44:33;100564.44;;;22.12;51.34
76122;BME280;70471;53.200;6.080;2023-08-30T18:49:25;100565.41;;;22.07;51.09
76122;BME280;70471;53.200;6.080;2023-08-30T18:54:16;100585.50;;;22.13;51.10
76122;BME280;70471;53.200;6.080;2023-08-30T18:59:09;100586.13;;;22.10;51.16
76122;BME280;70471;53.200;6.080;2023-08-30T19:04:02;100605.44;;;22.15;51.22
76122;BME280;70471;53.200;6.080;2023-08-30T19:08:54;100599.03;;;22.14;51.18
76122;BME280;70471;53.200;6.080;2023-08-30T19:13:46;100615.88;;;22.18;51.19
76122;BME280;70471;53.200;6.080;2023-08-30T19:18:39;100611.94;;;22.19;51.30
76122;BME280;70471;53.200;6.080;2023-08-30T19:23:31;100611.63;;;22.21;51.31
76122;BME280;70471;53.200;6.080;2023-08-30T19:28:22;100609.69;;;22.21;51.41
76122;BME280;70471;53.200;6.080;2023-08-30T19:33:14;100609.38;;;22.23;51.35
76122;BME280;70471;53.200;6.080;2023-08-30T19:38:06;100595.19;;;22.24;51.56
76122;BME280;70471;53.200;6.080;2023-08-30T19:42:58;100604.47;;;22.28;51.34
76122;BME280;70471;53.200;6.080;2023-08-30T19:47:49;100599.72;;;22.29;51.17
76122;BME280;70471;53.200;6.080;2023-08-30T19:52:41;100600.06;;;22.27;51.11
76122;BME280;70471;53.200;6.080;2023-08-30T19:57:34;100611.03;;;22.32;51.21
76122;BME280;70471;53.200;6.080;2023-08-30T20:02:26;100611.50;;;22.34;51.04
76122;BME280;70471;53.200;6.080;2023-08-30T20:07:19;100612.00;;;22.36;50.71
76122;BME280;70471;53.200;6.080;2023-08-30T20:12:10;100619.19;;;22.38;50.94
76122;BME280;70471;53.200;6.080;2023-08-30T20:17:03;100618.19;;;22.33;51.02
76122;BME280;70471;53.200;6.080;2023-08-30T20:21:54;100623.47;;;22.44;50.86
76122;BME280;70471;53.200;6.080;2023-08-30T20:26:47;100623.94;;;22.46;50.32
76122;BME280;70471;53.200;6.080;2023-08-30T20:31:38;100625.63;;;22.47;50.19
76122;BME280;70471;53.200;6.080;2023-08-30T20:36:31;100617.09;;;22.43;50.03
76122;BME280;70471;53.200;6.080;2023-08-30T20:41:24;100629.16;;;22.39;50.10
76122;BME280;70471;53.200;6.080;2023-08-30T20:46:16;100624.59;;;22.34;50.20
76122;BME280;70471;53.200;6.080;2023-08-30T20:51:08;100633.88;;;22.29;50.44
76122;BME280;70471;53.200;6.080;2023-08-30T20:56:01;100632.88;;;22.25;49.99
76122;BME280;70471;53.200;6.080;2023-08-30T21:00:56;100634.34;;;22.23;50.50
76122;BME280;70471;53.200;6.080;2023-08-30T21:05:47;100642.47;;;22.19;50.22
76122;BME280;70471;53.200;6.080;2023-08-30T21:10:39;100641.19;;;22.16;50.29
76122;BME280;70471;53.200;6.080;2023-08-30T21:15:32;100641.81;;;22.13;50.34
76122;BME280;70471;53.200;6.080;2023-08-30T21:20:23;100661.56;;;22.12;50.67
76122;BME280;70471;53.200;6.080;2023-08-30T21:25:15;100670.84;;;22.07;50.37
76122;BME280;70471;53.200;6.080;2023-08-30T21:30:07;100684.53;;;22.04;50.25
76122;BME280;70471;53.200;6.080;2023-08-30T21:35:00;100666.56;;;22.01;50.63
76122;BME280;70471;53.200;6.080;2023-08-30T21:39:52;100656.91;;;21.98;50.56
76122;BME280;70471;53.200;6.080;2023-08-30T21:44:43;100648.91;;;21.97;50.64
76122;BME280;70471;53.200;6.080;2023-08-30T21:49:34;100645.47;;;21.91;49.24
76122;BME280;70471;53.200;6.080;2023-08-30T21:54:27;100625.63;;;21.75;48.50
76122;BME280;70471;53.200;6.080;2023-08-30T21:59:20;100633.63;;;21.77;48.55
76122;BME280;70471;53.200;6.080;2023-08-30T22:04:12;100637.03;;;21.74;48.84
76122;BME280;70471;53.200;6.080;2023-08-30T22:09:04;100620.66;;;21.63;49.29
76122;BME280;70471;53.200;6.080;2023-08-30T22:13:59;100630.00;;;21.68;49.27
76122;BME280;70471;53.200;6.080;2023-08-30T22:18:50;100632.59;;;21.64;49.23
76122;BME280;70471;53.200;6.080;2023-08-30T22:23:42;100636.31;;;21.59;49.32
76122;BME280;70471;53.200;6.080;2023-08-30T22:28:34;100626.47;;;21.53;49.01
76122;BME280;70471;53.200;6.080;2023-08-30T22:33:27;100646.53;;;21.50;48.81
76122;BME280;70471;53.200;6.080;2023-08-30T22:38:20;100630.22;;;21.49;49.26
76122;BME280;70471;53.200;6.080;2023-08-30T22:43:11;100631.66;;;21.46;48.99
76122;BME280;70471;53.200;6.080;2023-08-30T22:48:04;100640.72;;;21.38;47.93
76122;BME280;70471;53.200;6.080;2023-08-30T22:52:56;100645.13;;;21.16;45.52
76122;BME280;70471;53.200;6.080;2023-08-30T22:57:48;100647.63;;;21.04;46.58
76122;BME280;70471;53.200;6.080;2023-08-30T23:02:39;100648.25;;;21.01;46.71
76122;BME280;70471;53.200;6.080;2023-08-30T23:07:31;100646.09;;;20.98;47.28
76122;BME280;70471;53.200;6.080;2023-08-30T23:12:24;100645.91;;;20.94;47.23
76122;BME280;70471;53.200;6.080;2023-08-30T23:17:15;100655.16;;;20.89;47.14
76122;BME280;70471;53.200;6.080;2023-08-30T23:22:07;100647.47;;;20.86;47.24
76122;BME280;70471;53.200;6.080;2023-08-30T23:26:59;100645.31;;;20.83;47.62
76122;BME280;70471;53.200;6.080;2023-08-30T23:31:52;100651.78;;;20.79;47.48
76122;BME280;70471;53.200;6.080;2023-08-30T23:36:43;100648.00;;;20.74;47.44
76122;BME280;70471;53.200;6.080;2023-08-30T23:41:35;100647.00;;;20.70;47.63
76122;BME280;70471;53.200;6.080;2023-08-30T23:46:26;100637.16;;;20.64;47.95
76122;BME280;70471;53.200;6.080;2023-08-30T23:51:19;100641.56;;;20.65;48.21
76122;BME280;70471;53.200;6.080;2023-08-30T23:56:11;100635.31;;;20.60;48.26
